Time;durP1;ratioP1;P1;durP2;ratioP2;P2;SDS_P1;SDS_P2;PMS_P1;PMS_P2;Temp;Humidity;BMP_temperature;BMP_pressure;BME280_temperature;BME280_humidity;BME280_pressure;Samples;Min_cycle;Max_cycle;Signal;HPM_P1;HPM_P2
2023/12/18 00:02:07;;;;;;;322.30;222.50;;;1.40;99.90;;;;;;5095076;28;20012;-75
2023/12/18 00:04:33;;;;;;;318.15;229.60;;;1.40;99.90;;;;;;5112195;28;20084;-75
2023/12/18 00:06:59;;;;;;;322.10;231.68;;;1.40;99.90;;;;;;5111254;28;20049;-74
2023/12/18 00:09:25;;;;;;;326.92;235.60;;;1.40;99.90;;;;;;5112524;28;20024;-74
2023/12/18 00:11:51;;;;;;;363.40;251.23;;;1.40;99.90;;;;;;5113689;28;20016;-75
2023/12/18 00:14:17;;;;;;;332.33;221.98;;;1.30;99.90;;;;;;5110178;28;20019;-75
2023/12/18 00:16:43;;;;;;;243.32;159.88;;;1.30;99.90;;;;;;5091857;28;20082;-74
2023/12/18 00:19:08;;;;;;;223.45;153.73;;;1.30;99.90;;;;;;5092220;28;20052;-75
2023/12/18 00:21:34;;;;;;;243.68;165.55;;;1.20;99.90;;;;;;5110342;28;20416;-75
2023/12/18 00:24:00;;;;;;;228.75;155.60;;;1.20;99.90;;;;;;5112481;28;20032;-73
2023/12/18 00:26:26;;;;;;;233.65;166.23;;;1.30;99.90;;;;;;5112216;28;20107;-75
2023/12/18 00:28:52;;;;;;;227.18;163.05;;;1.30;99.90;;;;;;5112189;28;20028;-77
2023/12/18 00:31:18;;;;;;;233.10;163.85;;;1.30;99.90;;;;;;5112257;28;20111;-75
2023/12/18 00:33:44;;;;;;;238.82;164.05;;;1.30;99.90;;;;;;5112419;28;20466;-74
2023/12/18 00:36:09;;;;;;;212.40;150.95;;;1.30;99.90;;;;;;5112576;28;20482;-75
2023/12/18 00:38:37;;;;;;;223.65;151.13;;;1.30;99.90;;;;;;5111538;28;20035;-75
2023/12/18 00:41:03;;;;;;;208.57;141.68;;;1.40;99.90;;;;;;5094037;28;20049;-74
2023/12/18 00:43:29;;;;;;;191.00;123.45;;;1.40;99.90;;;;;;5115359;28;20027;-75
2023/12/18 00:45:55;;;;;;;191.38;122.97;;;1.40;99.90;;;;;;5116176;28;20034;-75
2023/12/18 00:48:21;;;;;;;180.63;120.65;;;1.40;99.90;;;;;;5116154;28;20429;-75
2023/12/18 00:50:47;;;;;;;183.93;122.15;;;1.50;99.90;;;;;;5113999;28;20020;-74
2023/12/18 00:53:16;;;;;;;186.50;120.75;;;1.50;99.90;;;;;;5096999;28;20027;-75
2023/12/18 00:55:43;;;;;;;171.48;117.13;;;1.50;99.90;;;;;;5115686;28;20058;-74
2023/12/18 00:58:09;;;;;;;164.50;109.90;;;1.50;99.90;;;;;;5115720;28;20012;-74
2023/12/18 01:00:35;;;;;;;168.52;109.10;;;1.50;99.90;;;;;;5114062;28;20387;-75
2023/12/18 01:03:01;;;;;;;160.32;114.03;;;1.50;99.90;;;;;;5100172;28;20047;-75
2023/12/18 01:05:27;;;;;;;191.38;123.90;;;1.50;99.90;;;;;;5094350;28;20023;-75
2023/12/18 01:07:53;;;;;;;190.93;130.55;;;1.50;99.90;;;;;;5094883;28;20020;-75
2023/12/18 01:10:19;;;;;;;211.88;142.38;;;1.40;99.90;;;;;;5095946;28;20472;-75
2023/12/18 01:12:45;;;;;;;244.02;161.73;;;1.30;99.90;;;;;;5094491;28;20375;-74
2023/12/18 01:15:11;;;;;;;257.80;173.48;;;1.20;99.90;;;;;;5094052;28;20020;-74
2023/12/18 01:17:37;;;;;;;247.07;160.77;;;1.20;99.90;;;;;;5097405;28;20493;-74
2023/12/18 01:20:06;;;;;;;232.73;154.65;;;1.20;99.90;;;;;;5105926;28;20043;-75
2023/12/18 01:22:32;;;;;;;257.92;167.23;;;1.20;99.90;;;;;;5094329;28;20043;-75
2023/12/18 01:24:58;;;;;;;228.45;149.15;;;1.20;99.90;;;;;;5094971;28;20020;-76
2023/12/18 01:27:27;;;;;;;257.67;172.02;;;1.20;99.90;;;;;;5093861;28;20032;-75
2023/12/18 01:29:53;;;;;;;256.48;172.70;;;1.20;99.90;;;;;;5075100;28;20031;-75
2023/12/18 01:32:19;;;;;;;245.75;161.07;;;1.20;99.90;;;;;;5078290;28;20024;-75
2023/12/18 01:34:45;;;;;;;227.25;154.02;;;1.20;99.90;;;;;;5098194;28;20027;-76
2023/12/18 01:37:11;;;;;;;230.27;149.85;;;1.20;99.90;;;;;;5092623;28;20031;-76
2023/12/18 01:39:37;;;;;;;261.33;177.02;;;1.20;99.90;;;;;;5075707;28;20394;-77
2023/12/18 01:42:03;;;;;;;254.85;163.30;;;1.10;99.90;;;;;;5087869;28;20016;-74
2023/12/18 01:44:29;;;;;;;256.52;172.35;;;1.20;99.90;;;;;;5093331;28;20445;-75
2023/12/18 01:46:57;;;;;;;266.15;176.50;;;1.20;99.90;;;;;;5094211;28;20020;-75
2023/12/18 01:49:24;;;;;;;247.55;166.60;;;1.20;99.90;;;;;;5093531;28;20028;-75
2023/12/18 01:51:50;;;;;;;253.70;173.25;;;1.20;99.90;;;;;;5097141;28;20031;-75
2023/12/18 01:54:19;;;;;;;268.55;177.30;;;1.20;99.90;;;;;;5093442;28;20024;-76
2023/12/18 01:56:46;;;;;;;254.68;162.57;;;1.20;99.90;;;;;;5093745;28;20020;-77
2023/12/18 01:59:13;;;;;;;231.60;160.02;;;1.10;99.90;;;;;;5101537;28;20548;-76
2023/12/18 02:01:41;;;;;;;252.68;171.60;;;1.00;99.90;;;;;;5112741;28;20391;-74
2023/12/18 02:04:07;;;;;;;247.23;164.40;;;1.00;99.90;;;;;;5112318;28;20386;-77
2023/12/18 02:06:33;;;;;;;268.08;177.90;;;1.00;99.90;;;;;;5112431;28;20043;-75
2023/12/18 02:09:01;;;;;;;248.18;166.07;;;1.00;99.90;;;;;;5112842;28;20099;-76
2023/12/18 02:11:27;;;;;;;240.45;165.48;;;1.10;99.90;;;;;;5093392;28;20486;-75
2023/12/18 02:13:53;;;;;;;249.32;162.95;;;1.00;99.90;;;;;;5093409;28;20459;-75
2023/12/18 02:16:19;;;;;;;230.05;152.50;;;1.00;99.90;;;;;;5093210;28;20024;-75
2023/12/18 02:18:46;;;;;;;236.95;155.73;;;1.00;99.90;;;;;;5093251;28;20020;-76
2023/12/18 02:21:17;;;;;;;218.30;141.68;;;1.00;99.90;;;;;;5093235;28;20077;-76
2023/12/18 02:23:43;;;;;;;204.02;131.32;;;0.90;99.90;;;;;;5093057;28;20032;-75
2023/12/18 02:26:10;;;;;;;214.02;135.70;;;1.00;99.90;;;;;;5105799;28;20392;-77
2023/12/18 02:28:36;;;;;;;218.77;141.43;;;1.00;99.90;;;;;;5093326;28;20028;-76
2023/12/18 02:31:04;;;;;;;209.23;135.40;;;1.00;99.90;;;;;;5112385;28;20024;-77
2023/12/18 02:33:30;;;;;;;222.27;150.85;;;0.90;99.90;;;;;;5111796;28;20027;-76
2023/12/18 02:35:56;;;;;;;221.38;139.88;;;1.00;99.90;;;;;;5111958;28;20019;-75
2023/12/18 02:38:22;;;;;;;202.80;139.00;;;1.00;99.90;;;;;;5112105;28;20080;-75
2023/12/18 02:40:48;;;;;;;236.85;156.63;;;1.00;99.90;;;;;;5111892;28;20036;-76
2023/12/18 02:43:14;;;;;;;216.40;146.18;;;1.00;99.90;;;;;;5111393;28;20032;-76
2023/12/18 02:45:40;;;;;;;215.63;143.80;;;1.00;99.90;;;;;;5112455;28;20023;-76
2023/12/18 02:48:06;;;;;;;211.50;137.07;;;0.90;99.90;;;;;;5111265;28;20049;-76
2023/12/18 02:50:32;;;;;;;247.13;168.15;;;0.90;99.90;;;;;;5111707;28;20103;-76
2023/12/18 02:52:58;;;;;;;239.05;165.35;;;0.80;99.90;;;;;;5092656;28;20028;-76
2023/12/18 02:55:24;;;;;;;232.93;160.60;;;0.70;99.90;;;;;;5092626;28;20030;-76
2023/12/18 02:57:50;;;;;;;245.43;171.77;;;0.70;99.90;;;;;;5092858;28;20048;-76
2023/12/18 03:00:16;;;;;;;256.70;176.00;;;0.60;99.90;;;;;;5091953;28;20048;-76
2023/12/18 03:02:42;;;;;;;250.10;165.13;;;0.40;99.90;;;;;;5069710;28;20067;-76
2023/12/18 03:05:08;;;;;;;235.52;158.88;;;0.40;99.90;;;;;;5091709;28;20027;-78
2023/12/18 03:07:34;;;;;;;236.65;165.52;;;0.30;99.90;;;;;;5092329;28;20036;-76
2023/12/18 03:10:00;;;;;;;235.45;165.50;;;0.30;99.90;;;;;;5092380;28;20371;-76
2023/12/18 03:12:26;;;;;;;233.35;160.23;;;0.20;99.90;;;;;;5092625;28;20027;-76
2023/12/18 03:14:52;;;;;;;233.85;155.52;;;0.20;99.90;;;;;;5092072;28;20023;-75
2023/12/18 03:17:18;;;;;;;237.00;155.70;;;0.20;99.90;;;;;;5092259;28;20027;-76
2023/12/18 03:19:44;;;;;;;224.68;152.68;;;0.30;99.90;;;;;;5091953;28;20103;-76
2023/12/18 03:22:10;;;;;;;230.50;154.95;;;0.30;99.90;;;;;;5092014;28;20395;-77
2023/12/18 03:24:38;;;;;;;234.73;156.70;;;0.30;99.90;;;;;;5092660;28;20071;-75
2023/12/18 03:27:04;;;;;;;223.77;150.88;;;0.40;99.90;;;;;;5111141;28;20386;-76
2023/12/18 03:29:30;;;;;;;221.02;150.93;;;0.50;99.90;;;;;;5092021;28;20024;-76
2023/12/18 03:31:55;;;;;;;209.20;143.15;;;0.50;99.90;;;;;;5101348;27;20459;-77
2023/12/18 03:34:21;;;;;;;200.90;136.40;;;0.50;99.90;;;;;;5110774;28;20020;-75
2023/12/18 03:36:47;;;;;;;205.77;138.82;;;0.60;99.90;;;;;;5111030;28;20031;-75
2023/12/18 03:39:13;;;;;;;207.93;140.23;;;0.50;99.90;;;;;;5110817;28;20023;-75
2023/12/18 03:41:39;;;;;;;198.85;139.05;;;0.50;99.90;;;;;;5110715;28;20019;-75
2023/12/18 03:44:05;;;;;;;213.07;147.05;;;0.50;99.90;;;;;;5111243;28;20482;-76
2023/12/18 03:46:31;;;;;;;210.15;140.48;;;0.50;99.90;;;;;;5110767;28;20069;-75
2023/12/18 03:48:59;;;;;;;213.05;139.35;;;0.50;99.90;;;;;;5110689;28;20065;-76
2023/12/18 03:51:25;;;;;;;214.25;141.57;;;0.50;99.90;;;;;;5110762;28;20198;-76
2023/12/18 03:53:51;;;;;;;207.95;139.07;;;0.50;99.90;;;;;;5111121;28;20478;-76
2023/12/18 03:56:24;;;;;;;206.73;136.15;;;0.50;99.90;;;;;;5092247;28;20441;-74
2023/12/18 03:58:50;;;;;;;208.60;140.20;;;0.50;99.90;;;;;;5110306;28;20023;-75
2023/12/18 04:01:16;;;;;;;226.63;147.85;;;0.50;99.90;;;;;;5110478;28;20046;-76
2023/12/18 04:03:42;;;;;;;206.60;134.45;;;0.40;99.90;;;;;;5110732;28;20040;-77
2023/12/18 04:06:09;;;;;;;189.57;129.68;;;0.40;99.90;;;;;;5110892;28;20020;-77
2023/12/18 04:08:35;;;;;;;200.52;133.25;;;0.40;99.90;;;;;;5110606;28;20085;-76
2023/12/18 04:11:01;;;;;;;217.75;135.40;;;0.50;99.90;;;;;;5110693;28;20391;-75
2023/12/18 04:13:27;;;;;;;222.88;144.40;;;0.50;99.90;;;;;;5110958;28;20031;-76
2023/12/18 04:15:53;;;;;;;211.63;139.25;;;0.50;99.90;;;;;;5096497;28;20534;-77
2023/12/18 04:18:19;;;;;;;209.45;133.90;;;0.50;99.90;;;;;;5077735;28;20328;-75
2023/12/18 04:20:45;;;;;;;202.95;133.10;;;0.50;99.90;;;;;;5099808;28;20020;-76
2023/12/18 04:23:11;;;;;;;183.80;128.02;;;0.60;99.90;;;;;;5095778;28;20066;-75
2023/12/18 04:25:37;;;;;;;206.57;137.98;;;0.50;99.90;;;;;;5103997;28;20080;-76
2023/12/18 04:28:03;;;;;;;196.90;135.95;;;0.50;99.90;;;;;;5114569;28;20027;-75
2023/12/18 04:30:30;;;;;;;210.13;139.85;;;0.50;99.90;;;;;;5114683;28;20354;-75
2023/12/18 04:32:55;;;;;;;213.88;144.30;;;0.40;99.90;;;;;;5096065;28;20027;-74
2023/12/18 04:35:21;;;;;;;204.00;139.90;;;0.40;99.90;;;;;;5114528;28;20022;-77
2023/12/18 04:37:47;;;;;;;230.32;157.48;;;0.40;99.90;;;;;;5114536;28;20024;-77
2023/12/18 04:40:13;;;;;;;204.80;145.57;;;0.10;99.90;;;;;;5114541;28;20474;-76
2023/12/18 04:42:39;;;;;;;220.63;156.05;;;0.10;99.90;;;;;;5114075;28;20543;-75
2023/12/18 04:45:05;;;;;;;215.10;143.65;;;0.00;99.90;;;;;;5114760;28;20115;-76
2023/12/18 04:47:31;;;;;;;218.98;147.55;;;0.00;99.90;;;;;;5111633;28;20024;-77
2023/12/18 04:49:57;;;;;;;216.55;148.43;;;0.00;99.90;;;;;;5095115;28;20073;-76
2023/12/18 04:52:23;;;;;;;219.75;149.18;;;0.00;99.90;;;;;;5094836;28;20020;-77
2023/12/18 04:54:48;;;;;;;220.88;151.30;;;0.10;99.90;;;;;;5095194;28;20024;-76
2023/12/18 04:57:14;;;;;;;214.18;147.35;;;0.10;99.90;;;;;;5095070;28;20117;-75
2023/12/18 04:59:40;;;;;;;222.10;146.38;;;0.10;99.90;;;;;;5076348;28;20055;-76
2023/12/18 05:02:06;;;;;;;218.23;144.10;;;0.20;99.90;;;;;;5094685;28;20130;-75
2023/12/18 05:04:32;;;;;;;213.05;145.02;;;0.30;99.90;;;;;;5094563;28;20035;-76
2023/12/18 05:06:58;;;;;;;214.75;154.43;;;0.30;99.90;;;;;;5094847;28;20020;-75
2023/12/18 05:09:24;;;;;;;227.15;156.07;;;0.30;99.90;;;;;;5094629;28;20028;-76
2023/12/18 05:11:50;;;;;;;213.60;148.00;;;0.40;99.90;;;;;;5094630;28;20482;-75
2023/12/18 05:14:16;;;;;;;212.07;150.68;;;0.40;99.90;;;;;;5094451;28;20048;-75
2023/12/18 05:16:42;;;;;;;211.30;149.90;;;0.30;99.90;;;;;;5095042;28;20360;-77
2023/12/18 05:19:10;;;;;;;220.38;146.70;;;0.30;99.90;;;;;;5094358;28;20013;-75
2023/12/18 05:21:36;;;;;;;228.95;152.57;;;0.30;99.90;;;;;;5076458;28;20490;-74
2023/12/18 05:24:02;;;;;;;221.85;158.82;;;0.40;99.90;;;;;;5094236;28;20111;-76
2023/12/18 05:26:28;;;;;;;228.73;159.90;;;0.40;99.90;;;;;;5109487;28;20094;-74
2023/12/18 05:28:58;;;;;;;243.75;159.27;;;0.40;99.90;;;;;;5113612;28;20432;-74
2023/12/18 05:31:24;;;;;;;239.85;172.05;;;0.30;99.90;;;;;;5114993;28;20036;-76
2023/12/18 05:33:50;;;;;;;250.98;174.27;;;0.30;99.90;;;;;;5115427;28;20102;-76
2023/12/18 05:36:21;;;;;;;253.27;167.27;;;0.20;99.90;;;;;;5115225;28;20099;-76
2023/12/18 05:38:47;;;;;;;245.10;161.15;;;0.30;99.90;;;;;;5115103;28;20421;-76
2023/12/18 05:41:13;;;;;;;244.60;158.70;;;0.30;99.90;;;;;;5114901;28;20107;-76
2023/12/18 05:43:39;;;;;;;230.40;155.25;;;0.30;99.90;;;;;;5114968;28;20088;-76
2023/12/18 05:46:05;;;;;;;229.32;156.68;;;0.40;99.90;;;;;;5114878;28;20027;-75
2023/12/18 05:48:31;;;;;;;214.68;152.15;;;0.50;99.90;;;;;;5115148;28;20031;-78
2023/12/18 05:50:57;;;;;;;234.93;162.23;;;0.50;99.90;;;;;;5114658;28;20023;-76
2023/12/18 05:53:23;;;;;;;237.52;154.50;;;0.50;99.90;;;;;;5115029;28;20024;-77
2023/12/18 05:55:48;;;;;;;235.75;155.18;;;0.50;99.90;;;;;;5114942;28;20470;-77
2023/12/18 05:58:21;;;;;;;235.07;152.82;;;0.60;99.90;;;;;;5114821;28;20022;-74
2023/12/18 06:00:50;;;;;;;245.55;155.13;;;0.50;99.90;;;;;;5104443;28;20097;-74
2023/12/18 06:03:16;;;;;;;236.80;150.13;;;0.60;99.90;;;;;;5094118;28;20044;-76
2023/12/18 06:05:42;;;;;;;269.85;158.20;;;0.60;99.90;;;;;;5094260;28;20023;-77
2023/12/18 06:08:08;;;;;;;255.60;149.30;;;0.60;99.90;;;;;;5094001;28;20038;-76
2023/12/18 06:10:34;;;;;;;247.40;151.85;;;0.60;99.90;;;;;;5095356;28;20020;-76
2023/12/18 06:13:00;;;;;;;226.90;148.80;;;0.50;99.90;;;;;;5097463;28;20082;-77
2023/12/18 06:15:26;;;;;;;234.05;150.55;;;0.50;99.90;;;;;;5104382;28;20039;-75
2023/12/18 06:17:54;;;;;;;244.25;160.30;;;0.40;99.90;;;;;;5121590;27;20038;-77
2023/12/18 06:20:25;;;;;;;242.93;160.10;;;0.40;99.90;;;;;;5109166;27;20481;-79
2023/12/18 06:22:51;;;;;;;239.40;163.88;;;0.30;99.90;;;;;;5123475;27;20027;-77
2023/12/18 06:25:23;;;;;;;265.58;186.13;;;0.40;99.90;;;;;;5115962;27;20064;-76
2023/12/18 06:27:58;;;;;;;276.27;194.43;;;0.30;99.90;;;;;;5133858;27;20019;-75
2023/12/18 06:30:24;;;;;;;329.05;218.32;;;0.30;99.90;;;;;;5135000;27;20076;-78
2023/12/18 06:32:50;;;;;;;303.10;212.13;;;0.40;99.90;;;;;;5131483;27;20015;-76
2023/12/18 06:35:15;;;;;;;290.17;195.52;;;0.40;99.90;;;;;;5134224;27;20386;-76
2023/12/18 06:37:42;;;;;;;295.45;197.43;;;0.40;99.90;;;;;;5133932;27;20435;-76
2023/12/18 06:40:09;;;;;;;280.77;197.15;;;0.50;99.90;;;;;;5133306;27;20085;-75
2023/12/18 06:42:35;;;;;;;279.08;191.10;;;0.50;99.90;;;;;;5134152;27;20019;-77
2023/12/18 06:45:00;;;;;;;283.13;188.25;;;0.50;99.90;;;;;;5134151;27;20035;-77
2023/12/18 06:47:26;;;;;;;265.20;183.10;;;0.60;99.90;;;;;;5133674;27;20027;-77
2023/12/18 06:49:52;;;;;;;287.02;191.18;;;0.60;99.90;;;;;;5105501;27;20059;-76
2023/12/18 06:52:18;;;;;;;284.83;191.70;;;0.60;99.90;;;;;;5100508;28;20027;-76
2023/12/18 06:54:52;;;;;;;278.17;184.10;;;0.70;99.90;;;;;;5113565;28;20031;-76
2023/12/18 06:57:20;;;;;;;268.48;183.77;;;0.80;99.90;;;;;;5098625;28;20055;-76
2023/12/18 06:59:46;;;;;;;279.15;191.68;;;0.80;99.90;;;;;;5106149;28;20462;-77
2023/12/18 07:02:12;;;;;;;270.35;178.57;;;1.00;99.90;;;;;;5093235;28;20020;-75
2023/12/18 07:04:38;;;;;;;285.77;188.27;;;1.10;99.90;;;;;;5092711;28;20047;-77
2023/12/18 07:07:04;;;;;;;298.10;209.35;;;1.20;99.90;;;;;;5105373;27;20122;-77
2023/12/18 07:09:30;;;;;;;283.92;195.02;;;1.20;99.90;;;;;;5113114;28;20530;-76
2023/12/18 07:11:56;;;;;;;293.77;194.85;;;1.40;99.90;;;;;;5113364;28;20106;-75
2023/12/18 07:14:22;;;;;;;281.08;194.07;;;1.60;99.90;;;;;;5124453;27;20075;-75
2023/12/18 07:16:47;;;;;;;281.58;188.88;;;1.60;99.90;;;;;;5127935;27;20440;-76
2023/12/18 07:19:15;;;;;;;272.05;181.00;;;1.70;99.90;;;;;;5113009;28;20020;-75
2023/12/18 07:21:49;;;;;;;258.98;176.65;;;1.80;99.90;;;;;;5120841;27;20031;-76
2023/12/18 07:24:15;;;;;;;259.55;179.27;;;1.90;99.90;;;;;;5113162;28;20237;-76
2023/12/18 07:26:41;;;;;;;248.13;175.52;;;2.00;99.90;;;;;;5119133;27;20060;-77
2023/12/18 07:29:06;;;;;;;255.32;174.25;;;2.00;99.90;;;;;;5128121;27;20027;-75
2023/12/18 07:31:32;;;;;;;255.52;176.75;;;2.10;99.90;;;;;;5108227;27;20028;-78
2023/12/18 07:33:58;;;;;;;261.98;179.77;;;2.30;99.90;;;;;;5110298;28;20031;-77
2023/12/18 07:36:24;;;;;;;258.58;178.13;;;2.30;99.90;;;;;;5112717;28;20028;-76
2023/12/18 07:38:50;;;;;;;265.88;191.50;;;2.30;99.90;;;;;;5125960;27;20035;-76
2023/12/18 07:41:16;;;;;;;262.35;195.90;;;2.40;99.90;;;;;;5128730;27;20018;-75
2023/12/18 07:43:45;;;;;;;262.58;181.43;;;2.50;99.90;;;;;;5125365;27;20460;-75
2023/12/18 07:46:19;;;;;;;188.75;128.25;;;2.50;99.90;;;;;;5116378;27;20026;-76
2023/12/18 07:48:49;;;;;;;173.52;118.57;;;2.60;99.90;;;;;;5092190;28;20046;-75
2023/12/18 07:51:16;;;;;;;137.05;92.93;;;2.60;99.90;;;;;;5109389;28;20112;-75
2023/12/18 07:53:42;;;;;;;136.00;90.22;;;2.70;99.90;;;;;;5116340;27;20501;-76
2023/12/18 07:56:11;;;;;;;133.73;97.63;;;2.60;99.90;;;;;;5121674;28;20103;-76
2023/12/18 07:58:40;;;;;;;148.15;103.43;;;2.70;99.90;;;;;;5132619;27;20034;-75
2023/12/18 08:01:16;;;;;;;156.73;108.65;;;2.80;99.90;;;;;;5123009;28;20051;-76
2023/12/18 08:03:44;;;;;;;149.63;106.57;;;2.90;99.90;;;;;;5113041;28;20036;-76
2023/12/18 08:06:10;;;;;;;170.13;113.18;;;2.90;99.90;;;;;;5092130;28;20027;-76
2023/12/18 08:08:36;;;;;;;163.90;112.07;;;3.00;99.90;;;;;;5101345;28;20035;-77
2023/12/18 08:11:02;;;;;;;147.15;104.88;;;3.20;99.90;;;;;;5131774;28;20027;-76
2023/12/18 08:13:28;;;;;;;129.88;89.28;;;3.20;99.90;;;;;;5128215;28;20038;-77
2023/12/18 08:15:54;;;;;;;108.82;76.72;;;3.40;99.90;;;;;;5132928;27;20039;-77
2023/12/18 08:18:25;;;;;;;107.60;73.15;;;3.50;99.90;;;;;;5110576;28;20112;-75
2023/12/18 08:20:51;;;;;;;119.10;78.40;;;3.70;99.90;;;;;;5115142;28;20102;-77
2023/12/18 08:23:17;;;;;;;113.63;76.82;;;3.80;99.90;;;;;;5117717;28;20119;-75
2023/12/18 08:25:43;;;;;;;114.38;77.88;;;3.90;99.90;;;;;;5094348;28;20055;-75
2023/12/18 08:28:09;;;;;;;120.35;77.40;;;4.00;99.90;;;;;;5116743;28;20019;-75
2023/12/18 08:30:35;;;;;;;124.28;79.78;;;4.10;99.90;;;;;;5133026;27;20103;-77
2023/12/18 08:33:01;;;;;;;119.28;81.43;;;4.20;99.90;;;;;;5125712;28;20100;-75
2023/12/18 08:35:27;;;;;;;115.72;82.10;;;4.30;99.90;;;;;;5112422;28;20024;-76
2023/12/18 08:37:53;;;;;;;126.85;85.90;;;4.50;99.90;;;;;;5116654;28;20098;-77
2023/12/18 08:40:18;;;;;;;116.28;75.40;;;4.60;99.90;;;;;;5132227;28;20027;-78
2023/12/18 08:42:44;;;;;;;104.82;75.22;;;4.70;99.90;;;;;;5132478;27;20019;-77
2023/12/18 08:45:10;;;;;;;107.75;73.85;;;4.80;99.90;;;;;;5114699;28;20032;-75
2023/12/18 08:47:36;;;;;;;101.28;70.22;;;4.90;99.90;;;;;;5112257;28;20027;-73
2023/12/18 08:50:02;;;;;;;94.82;61.88;;;5.00;99.90;;;;;;5123838;27;20031;-76
2023/12/18 08:52:28;;;;;;;86.53;59.78;;;5.10;99.90;;;;;;5132228;27;20072;-73
2023/12/18 08:54:54;;;;;;;78.70;55.38;;;5.20;99.90;;;;;;5123489;28;20020;-75
2023/12/18 08:57:20;;;;;;;70.88;48.00;;;5.30;99.90;;;;;;5130994;28;20023;-76
2023/12/18 08:59:46;;;;;;;50.50;34.85;;;5.40;99.90;;;;;;5131851;28;20050;-75
2023/12/18 09:02:11;;;;;;;40.53;27.63;;;5.50;99.90;;;;;;5103447;28;20036;-76
2023/12/18 09:04:37;;;;;;;52.67;36.17;;;5.60;99.90;;;;;;5108791;28;20414;-75
2023/12/18 09:07:03;;;;;;;57.78;33.00;;;5.70;99.90;;;;;;5108910;27;20019;-76
2023/12/18 09:09:29;;;;;;;46.55;33.53;;;5.50;99.90;;;;;;5122981;27;20023;-74
2023/12/18 09:11:55;;;;;;;51.28;33.10;;;5.60;99.90;;;;;;5130038;27;20034;-74
2023/12/18 09:14:21;;;;;;;50.38;34.95;;;5.70;99.90;;;;;;5135962;27;20072;-75
2023/12/18 09:16:47;;;;;;;46.20;30.38;;;5.90;99.90;;;;;;5120547;27;20539;-73
2023/12/18 09:19:13;;;;;;;50.13;33.53;;;6.00;99.90;;;;;;5107763;28;20025;-73
2023/12/18 09:21:39;;;;;;;50.67;34.53;;;6.10;99.90;;;;;;5123186;27;20030;-73
2023/12/18 09:24:05;;;;;;;41.63;28.55;;;6.30;99.90;;;;;;5115467;28;20457;-74
2023/12/18 09:26:36;;;;;;;46.05;29.38;;;6.30;99.90;;;;;;5119790;27;20023;-76
2023/12/18 09:29:02;;;;;;;48.35;34.05;;;6.40;99.90;;;;;;5115309;27;20034;-74
2023/12/18 09:31:28;;;;;;;49.42;34.13;;;6.60;99.90;;;;;;5110914;28;20024;-76
2023/12/18 09:33:54;;;;;;;59.65;35.92;;;6.60;99.90;;;;;;5105081;28;20381;-75
2023/12/18 09:36:22;;;;;;;47.85;32.72;;;6.40;99.90;;;;;;5119853;27;20374;-75
2023/12/18 09:38:48;;;;;;;57.17;39.65;;;6.70;99.90;;;;;;5134990;27;20023;-75
2023/12/18 09:41:22;;;;;;;50.00;32.75;;;6.80;99.90;;;;;;5100334;28;20095;-75
2023/12/18 09:43:53;;;;;;;49.33;29.80;;;6.80;99.90;;;;;;5094518;28;20052;-77
2023/12/18 09:46:22;;;;;;;52.55;30.38;;;6.70;99.90;;;;;;5108685;27;20020;-75
2023/12/18 09:48:52;;;;;;;51.08;31.50;;;6.80;99.90;;;;;;5135311;27;20031;-74
2023/12/18 09:51:24;;;;;;;46.72;31.67;;;6.80;99.90;;;;;;5120906;27;20020;-74
2023/12/18 09:53:54;;;;;;;46.13;30.03;;;6.90;99.90;;;;;;5094768;28;20024;-76
2023/12/18 09:56:22;;;;;;;48.58;29.83;;;7.10;99.90;;;;;;5103838;28;20072;-74
2023/12/18 09:58:48;;;;;;;47.28;31.30;;;7.20;99.90;;;;;;5126831;27;20058;-75
2023/12/18 10:01:16;;;;;;;56.42;32.47;;;7.20;99.90;;;;;;5112284;28;20052;-76
2023/12/18 10:03:45;;;;;;;51.15;35.63;;;7.40;99.90;;;;;;5116306;27;20206;-75
2023/12/18 10:06:11;;;;;;;42.25;29.40;;;7.50;99.90;;;;;;5114955;28;20024;-75
2023/12/18 10:08:37;;;;;;;42.95;28.77;;;7.40;99.90;;;;;;5094114;28;20532;-76
2023/12/18 10:11:03;;;;;;;43.45;31.17;;;7.40;99.90;;;;;;5094248;28;20039;-76
2023/12/18 10:13:34;;;;;;;50.50;33.20;;;7.20;99.90;;;;;;5129542;27;20029;-77
2023/12/18 10:16:02;;;;;;;52.35;34.10;;;7.40;99.90;;;;;;5134769;27;20117;-77
2023/12/18 10:18:28;;;;;;;55.13;36.75;;;7.50;99.90;;;;;;5121840;27;20098;-75
2023/12/18 10:20:55;;;;;;;57.25;37.65;;;7.60;99.90;;;;;;5092853;28;20024;-75
2023/12/18 10:23:20;;;;;;;55.85;35.95;;;7.70;99.90;;;;;;5093625;28;20130;-77
2023/12/18 10:25:47;;;;;;;56.88;39.88;;;7.70;99.90;;;;;;5118571;27;20495;-76
2023/12/18 10:28:18;;;;;;;59.08;39.60;;;7.80;99.90;;;;;;5128273;27;20022;-76
2023/12/18 10:30:45;;;;;;;59.65;38.28;;;7.70;99.90;;;;;;5127432;27;20028;-77
2023/12/18 10:33:11;;;;;;;56.00;35.78;;;7.90;99.90;;;;;;5105328;28;20019;-74
2023/12/18 10:35:41;;;;;;;49.13;35.95;;;7.80;99.90;;;;;;5113797;28;20058;-77
2023/12/18 10:38:09;;;;;;;49.65;33.20;;;7.70;99.90;;;;;;5112003;28;20490;-76
2023/12/18 10:40:35;;;;;;;48.63;32.13;;;7.80;99.90;;;;;;5114191;27;20055;-76
2023/12/18 10:43:19;;;;;;;48.33;33.00;;;7.70;99.90;;;;;;5125846;27;20099;-75
2023/12/18 10:45:47;;;;;;;53.65;33.33;;;7.80;99.90;;;;;;5110984;28;20044;-73
2023/12/18 10:48:16;;;;;;;57.75;35.67;;;7.70;99.90;;;;;;5113914;28;20099;-77
2023/12/18 10:50:42;;;;;;;49.33;34.58;;;7.60;99.90;;;;;;5131007;27;20023;-77
2023/12/18 10:53:09;;;;;;;52.30;35.13;;;7.80;99.90;;;;;;5134013;27;20020;-75
2023/12/18 10:55:37;;;;;;;50.42;34.60;;;7.80;99.90;;;;;;5119952;27;20046;-75
2023/12/18 10:58:05;;;;;;;51.22;31.77;;;7.90;99.90;;;;;;5093683;28;20103;-74
2023/12/18 11:00:35;;;;;;;50.17;33.67;;;7.90;99.90;;;;;;5100891;28;20071;-75
2023/12/18 11:03:02;;;;;;;55.97;33.25;;;8.00;99.90;;;;;;5102550;28;20039;-76
2023/12/18 11:05:29;;;;;;;49.72;34.00;;;7.90;99.90;;;;;;5112961;28;20038;-74
2023/12/18 11:07:58;;;;;;;42.13;29.33;;;8.10;99.90;;;;;;5099409;28;20016;-77
2023/12/18 11:10:27;;;;;;;47.75;31.45;;;7.90;99.90;;;;;;5119148;27;20031;-74
2023/12/18 11:13:05;;;;;;;48.33;30.35;;;8.00;99.90;;;;;;5122567;27;20054;-76
2023/12/18 11:15:49;;;;;;;44.42;29.05;;;8.10;99.90;;;;;;5108757;27;20084;-74
2023/12/18 11:18:59;;;;;;;46.70;29.27;;;8.10;99.90;;;;;;5133172;27;20808;-77
2023/12/18 11:21:25;;;;;;;41.25;28.23;;;8.20;99.90;;;;;;5114158;27;20490;-76
2023/12/18 11:23:58;;;;;;;48.45;27.00;;;8.10;99.90;;;;;;5131638;27;20045;-74
2023/12/18 11:26:28;;;;;;;38.78;26.50;;;8.20;99.90;;;;;;5109701;28;20058;-74
2023/12/18 11:28:58;;;;;;;37.85;25.10;;;8.30;99.90;;;;;;5112148;28;20478;-73
2023/12/18 11:31:24;;;;;;;40.58;22.98;;;8.40;99.90;;;;;;5127024;27;20035;-76
2023/12/18 11:34:04;;;;;;;39.17;24.27;;;8.40;99.90;;;;;;5108817;27;20016;-76
2023/12/18 11:36:30;;;;;;;39.53;22.60;;;8.40;99.90;;;;;;5092573;28;20032;-74
2023/12/18 11:39:02;;;;;;;39.30;22.48;;;8.60;99.90;;;;;;5123234;27;20015;-77
2023/12/18 11:41:44;;;;;;;36.38;22.50;;;8.60;99.90;;;;;;5084590;28;20070;-74
2023/12/18 11:44:26;;;;;;;31.20;21.27;;;8.70;99.90;;;;;;5112102;27;20126;-76
2023/12/18 11:46:53;;;;;;;31.35;20.00;;;8.70;99.90;;;;;;5130047;27;20019;-73
2023/12/18 11:49:19;;;;;;;31.27;20.98;;;8.60;99.90;;;;;;5103919;28;20039;-75
2023/12/18 11:51:45;;;;;;;38.00;24.55;;;8.60;99.90;;;;;;5129985;27;20065;-74
2023/12/18 11:54:17;;;;;;;35.47;25.00;;;8.80;99.90;;;;;;5120145;28;20008;-75
2023/12/18 11:56:43;;;;;;;35.30;24.17;;;8.80;99.90;;;;;;5126657;27;20051;-78
2023/12/18 11:59:10;;;;;;;36.47;25.73;;;8.90;99.90;;;;;;5110740;28;20287;-76
2023/12/18 12:01:39;;;;;;;33.42;24.20;;;9.00;99.90;;;;;;5110567;28;20039;-75
2023/12/18 12:04:05;;;;;;;39.65;25.98;;;9.10;99.90;;;;;;5115221;28;20083;-76
2023/12/18 12:06:33;;;;;;;38.60;25.77;;;9.20;99.90;;;;;;5111251;28;20031;-74
2023/12/18 12:08:59;;;;;;;35.40;23.88;;;9.20;99.90;;;;;;5126194;28;20538;-75
2023/12/18 12:11:25;;;;;;;33.80;25.13;;;9.30;99.90;;;;;;5132642;28;20020;-74
2023/12/18 12:13:54;;;;;;;39.00;27.05;;;9.30;99.90;;;;;;5096037;28;20015;-75
2023/12/18 12:16:20;;;;;;;39.55;25.83;;;9.40;99.90;;;;;;5096472;28;20072;-76
2023/12/18 12:18:52;;;;;;;37.75;24.90;;;9.50;99.90;;;;;;5131931;28;20023;-75
2023/12/18 12:21:18;;;;;;;34.00;23.30;;;9.50;99.90;;;;;;5126500;28;20023;-75
2023/12/18 12:23:48;;;;;;;37.97;24.23;;;9.60;99.90;;;;;;5119196;27;20236;-74